sensor_id;sensor_type;location;lat;lon;timestamp;pressure;altitude;pressure_sealevel;temperature;humidity
27840;BME280;15207;42.182;24.308;2023-07-29T00:02:25;98955.28;;;18.62;62.59
27840;BME280;15207;42.182;24.308;2023-07-29T00:04:50;98953.03;;;18.66;62.17
27840;BME280;15207;42.182;24.308;2023-07-29T00:07:16;98969.31;;;18.66;61.67
27840;BME280;15207;42.182;24.308;2023-07-29T00:09:41;98966.88;;;18.71;61.54
27840;BME280;15207;42.182;24.308;2023-07-29T00:12:07;98963.81;;;18.74;60.66
27840;BME280;15207;42.182;24.308;2023-07-29T00:14:33;98958.00;;;18.77;60.51
27840;BME280;15207;42.182;24.308;2023-07-29T00:16:59;98961.59;;;18.77;60.61
27840;BME280;15207;42.182;24.308;2023-07-29T00:19:25;98961.28;;;18.72;60.55
27840;BME280;15207;42.182;24.308;2023-07-29T00:21:51;98954.66;;;18.75;60.14
27840;BME280;15207;42.182;24.308;2023-07-29T00:24:17;98949.50;;;18.65;60.99
27840;BME280;15207;42.182;24.308;2023-07-29T00:26:43;98949.44;;;18.50;62.33
27840;BME280;15207;42.182;24.308;2023-07-29T00:29:08;98951.25;;;18.34;62.31
27840;BME280;15207;42.182;24.308;2023-07-29T00:31:34;98959.03;;;18.06;63.67
27840;BME280;15207;42.182;24.308;2023-07-29T00:33:59;98952.88;;;17.89;65.36
27840;BME280;15207;42.182;24.308;2023-07-29T00:36:25;98957.66;;;17.78;67.57
27840;BME280;15207;42.182;24.308;2023-07-29T00:38:52;98956.28;;;17.82;67.83
27840;BME280;15207;42.182;24.308;2023-07-29T00:41:20;98957.53;;;18.03;67.75
27840;BME280;15207;42.182;24.308;2023-07-29T00:43:47;98949.00;;;18.15;67.91
27840;BME280;15207;42.182;24.308;2023-07-29T00:46:12;98942.09;;;18.12;67.58
27840;BME280;15207;42.182;24.308;2023-07-29T00:48:38;98944.13;;;17.78;68.97
27840;BME280;15207;42.182;24.308;2023-07-29T00:51:04;98939.16;;;17.90;68.51
27840;BME280;15207;42.182;24.308;2023-07-29T00:53:30;98954.25;;;17.84;68.07
27840;BME280;15207;42.182;24.308;2023-07-29T00:55:56;98952.84;;;17.57;69.46
27840;BME280;15207;42.182;24.308;2023-07-29T00:58:22;98954.09;;;17.78;69.12
27840;BME280;15207;42.182;24.308;2023-07-29T01:00:48;98954.78;;;17.80;68.17
27840;BME280;15207;42.182;24.308;2023-07-29T01:03:15;98947.09;;;17.60;68.92
27840;BME280;15207;42.182;24.308;2023-07-29T01:08:43;98948.47;;;17.48;70.82
27840;BME280;15207;42.182;24.308;2023-07-29T01:14:04;98953.16;;;17.14;73.27
27840;BME280;15207;42.182;24.308;2023-07-29T01:16:47;98960.59;;;16.95;75.50
27840;BME280;15207;42.182;24.308;2023-07-29T01:19:40;98950.13;;;16.92;76.67
27840;BME280;15207;42.182;24.308;2023-07-29T01:22:10;98953.34;;;16.87;76.65
27840;BME280;15207;42.182;24.308;2023-07-29T01:24:38;98952.50;;;16.87;77.09
27840;BME280;15207;42.182;24.308;2023-07-29T01:27:03;98954.34;;;16.86;76.83
27840;BME280;15207;42.182;24.308;2023-07-29T01:29:31;98954.50;;;17.10;75.25
27840;BME280;15207;42.182;24.308;2023-07-29T01:32:01;98960.25;;;17.15;74.72
27840;BME280;15207;42.182;24.308;2023-07-29T01:34:38;98959.38;;;17.14;74.79
27840;BME280;15207;42.182;24.308;2023-07-29T01:37:09;98964.47;;;17.26;74.58
27840;BME280;15207;42.182;24.308;2023-07-29T01:39:38;98958.91;;;17.11;74.95
27840;BME280;15207;42.182;24.308;2023-07-29T01:42:07;98955.50;;;17.00;75.87
27840;BME280;15207;42.182;24.308;2023-07-29T01:44:33;98952.13;;;17.07;75.71
27840;BME280;15207;42.182;24.308;2023-07-29T01:47:00;98954.84;;;17.15;76.30
27840;BME280;15207;42.182;24.308;2023-07-29T01:49:26;98951.28;;;17.14;76.50
27840;BME280;15207;42.182;24.308;2023-07-29T01:51:52;98953.16;;;17.05;76.76
27840;BME280;15207;42.182;24.308;2023-07-29T01:54:18;98961.44;;;17.12;76.84
27840;BME280;15207;42.182;24.308;2023-07-29T01:56:43;98970.03;;;17.16;77.26
27840;BME280;15207;42.182;24.308;2023-07-29T01:59:09;98970.19;;;17.23;76.67
27840;BME280;15207;42.182;24.308;2023-07-29T02:01:35;98975.50;;;17.08;74.72
27840;BME280;15207;42.182;24.308;2023-07-29T02:04:01;98974.31;;;17.10;72.96
27840;BME280;15207;42.182;24.308;2023-07-29T02:06:27;98968.03;;;16.93;75.14
27840;BME280;15207;42.182;24.308;2023-07-29T02:08:54;98965.00;;;16.55;77.22
27840;BME280;15207;42.182;24.308;2023-07-29T02:11:20;98966.50;;;16.32;79.87
27840;BME280;15207;42.182;24.308;2023-07-29T02:13:52;98975.63;;;16.23;82.47
27840;BME280;15207;42.182;24.308;2023-07-29T02:16:18;98972.72;;;16.16;83.23
27840;BME280;15207;42.182;24.308;2023-07-29T02:18:44;98970.03;;;16.16;84.19
27840;BME280;15207;42.182;24.308;2023-07-29T02:21:09;98974.28;;;16.35;83.41
27840;BME280;15207;42.182;24.308;2023-07-29T02:23:35;98976.00;;;16.45;81.78
27840;BME280;15207;42.182;24.308;2023-07-29T02:26:00;98980.56;;;16.69;80.96
27840;BME280;15207;42.182;24.308;2023-07-29T02:28:26;98978.34;;;16.81;78.87
27840;BME280;15207;42.182;24.308;2023-07-29T02:33:38;98979.72;;;17.10;75.93
27840;BME280;15207;42.182;24.308;2023-07-29T02:36:04;98983.41;;;17.01;75.15
27840;BME280;15207;42.182;24.308;2023-07-29T02:38:30;98981.41;;;16.86;72.44
27840;BME280;15207;42.182;24.308;2023-07-29T02:40:57;98977.84;;;16.94;71.27
27840;BME280;15207;42.182;24.308;2023-07-29T02:43:23;98982.38;;;16.93;70.23
27840;BME280;15207;42.182;24.308;2023-07-29T02:45:49;98988.81;;;17.01;70.84
27840;BME280;15207;42.182;24.308;2023-07-29T02:48:14;98991.53;;;17.09;69.50
27840;BME280;15207;42.182;24.308;2023-07-29T02:50:40;98988.81;;;17.09;70.14
27840;BME280;15207;42.182;24.308;2023-07-29T02:53:06;98991.19;;;16.96;70.79
27840;BME280;15207;42.182;24.308;2023-07-29T02:55:31;98994.75;;;16.79;71.14
27840;BME280;15207;42.182;24.308;2023-07-29T02:57:57;98996.75;;;16.61;71.16
27840;BME280;15207;42.182;24.308;2023-07-29T03:00:23;99000.66;;;16.66;69.17
27840;BME280;15207;42.182;24.308;2023-07-29T03:02:49;98996.09;;;16.59;70.45
27840;BME280;15207;42.182;24.308;2023-07-29T03:05:15;98999.78;;;16.33;72.32
27840;BME280;15207;42.182;24.308;2023-07-29T03:07:41;98998.63;;;16.35;73.12
27840;BME280;15207;42.182;24.308;2023-07-29T03:10:07;99000.47;;;16.43;72.60
27840;BME280;15207;42.182;24.308;2023-07-29T03:12:33;99009.75;;;16.49;72.42
27840;BME280;15207;42.182;24.308;2023-07-29T03:14:59;99001.84;;;16.47;72.15
27840;BME280;15207;42.182;24.308;2023-07-29T03:17:25;99003.88;;;16.53;71.82
27840;BME280;15207;42.182;24.308;2023-07-29T03:19:52;99007.91;;;16.66;71.27
27840;BME280;15207;42.182;24.308;2023-07-29T03:22:17;99015.53;;;16.62;71.70
27840;BME280;15207;42.182;24.308;2023-07-29T03:24:44;99008.75;;;16.42;72.23
27840;BME280;15207;42.182;24.308;2023-07-29T03:27:11;99009.06;;;16.30;72.12
27840;BME280;15207;42.182;24.308;2023-07-29T03:29:36;99013.78;;;16.20;73.51
27840;BME280;15207;42.182;24.308;2023-07-29T03:32:02;99017.47;;;16.10;74.06
27840;BME280;15207;42.182;24.308;2023-07-29T03:34:28;99011.34;;;16.00;73.97
27840;BME280;15207;42.182;24.308;2023-07-29T03:36:53;99019.63;;;15.98;76.10
27840;BME280;15207;42.182;24.308;2023-07-29T03:39:19;99016.97;;;16.15;75.38
27840;BME280;15207;42.182;24.308;2023-07-29T03:41:45;99023.41;;;16.31;75.06
27840;BME280;15207;42.182;24.308;2023-07-29T03:44:11;99020.84;;;16.12;74.29
27840;BME280;15207;42.182;24.308;2023-07-29T03:46:36;99016.25;;;16.05;75.19
27840;BME280;15207;42.182;24.308;2023-07-29T03:49:02;99030.69;;;16.30;73.93
27840;BME280;15207;42.182;24.308;2023-07-29T03:51:28;99030.56;;;16.57;73.63
27840;BME280;15207;42.182;24.308;2023-07-29T03:53:54;99034.97;;;16.74;74.43
27840;BME280;15207;42.182;24.308;2023-07-29T03:56:20;99035.63;;;16.85;74.63
27840;BME280;15207;42.182;24.308;2023-07-29T03:58:46;99035.63;;;17.01;74.16
27840;BME280;15207;42.182;24.308;2023-07-29T04:01:15;99032.44;;;17.14;73.88
27840;BME280;15207;42.182;24.308;2023-07-29T04:03:41;99038.00;;;17.21;73.91
27840;BME280;15207;42.182;24.308;2023-07-29T04:06:07;99042.75;;;17.19;73.70
27840;BME280;15207;42.182;24.308;2023-07-29T04:08:32;99033.63;;;17.20;74.22
27840;BME280;15207;42.182;24.308;2023-07-29T04:10:58;99036.66;;;17.25;74.37
27840;BME280;15207;42.182;24.308;2023-07-29T04:13:24;99044.75;;;17.42;73.49
27840;BME280;15207;42.182;24.308;2023-07-29T04:15:50;99047.56;;;17.65;72.90
27840;BME280;15207;42.182;24.308;2023-07-29T04:18:15;99047.28;;;17.92;72.66
27840;BME280;15207;42.182;24.308;2023-07-29T04:20:41;99046.38;;;18.16;72.02
27840;BME280;15207;42.182;24.308;2023-07-29T04:23:07;99044.56;;;18.40;70.31
27840;BME280;15207;42.182;24.308;2023-07-29T04:25:33;99042.25;;;18.52;69.79
27840;BME280;15207;42.182;24.308;2023-07-29T04:27:58;99050.34;;;18.84;68.41
27840;BME280;15207;42.182;24.308;2023-07-29T04:30:24;99049.25;;;19.16;67.24
27840;BME280;15207;42.182;24.308;2023-07-29T04:32:49;99049.13;;;19.48;66.17
27840;BME280;15207;42.182;24.308;2023-07-29T04:35:15;99045.94;;;19.60;65.56
27840;BME280;15207;42.182;24.308;2023-07-29T04:37:41;99048.22;;;19.71;64.97
27840;BME280;15207;42.182;24.308;2023-07-29T04:40:07;99046.16;;;19.88;63.72
27840;BME280;15207;42.182;24.308;2023-07-29T04:42:33;99046.72;;;19.99;62.83
27840;BME280;15207;42.182;24.308;2023-07-29T04:45:02;99050.81;;;20.09;62.42
27840;BME280;15207;42.182;24.308;2023-07-29T04:47:28;99054.44;;;20.32;61.08
27840;BME280;15207;42.182;24.308;2023-07-29T04:49:54;99067.13;;;20.61;60.72
27840;BME280;15207;42.182;24.308;2023-07-29T04:52:20;99064.13;;;20.78;59.79
27840;BME280;15207;42.182;24.308;2023-07-29T04:54:46;99052.75;;;21.11;59.04
27840;BME280;15207;42.182;24.308;2023-07-29T04:57:13;99049.22;;;21.18;57.75
27840;BME280;15207;42.182;24.308;2023-07-29T04:59:39;99052.88;;;21.32;56.37
27840;BME280;15207;42.182;24.308;2023-07-29T05:02:05;99051.28;;;21.37;56.41
27840;BME280;15207;42.182;24.308;2023-07-29T05:04:30;99045.63;;;21.39;55.41
27840;BME280;15207;42.182;24.308;2023-07-29T05:06:56;99054.97;;;21.58;55.87
27840;BME280;15207;42.182;24.308;2023-07-29T05:09:21;99057.31;;;21.97;54.98
27840;BME280;15207;42.182;24.308;2023-07-29T05:11:47;99059.03;;;22.11;53.76
27840;BME280;15207;42.182;24.308;2023-07-29T05:14:15;99060.78;;;22.26;52.07
27840;BME280;15207;42.182;24.308;2023-07-29T05:16:40;99054.69;;;22.24;52.84
27840;BME280;15207;42.182;24.308;2023-07-29T05:19:07;99056.81;;;22.28;52.20
27840;BME280;15207;42.182;24.308;2023-07-29T05:21:33;99062.28;;;22.35;52.99
27840;BME280;15207;42.182;24.308;2023-07-29T05:24:01;99067.84;;;22.55;52.10
27840;BME280;15207;42.182;24.308;2023-07-29T05:26:27;99060.13;;;22.79;51.17
27840;BME280;15207;42.182;24.308;2023-07-29T05:28:53;99068.09;;;22.88;51.00
27840;BME280;15207;42.182;24.308;2023-07-29T05:31:19;99063.06;;;22.98;51.29
27840;BME280;15207;42.182;24.308;2023-07-29T05:33:45;99071.06;;;22.99;51.24
27840;BME280;15207;42.182;24.308;2023-07-29T05:36:10;99066.03;;;23.10;50.63
27840;BME280;15207;42.182;24.308;2023-07-29T05:38:36;99068.75;;;23.17;50.10
27840;BME280;15207;42.182;24.308;2023-07-29T05:41:01;99065.16;;;23.16;50.80
27840;BME280;15207;42.182;24.308;2023-07-29T05:43:27;99070.44;;;23.31;50.42
27840;BME280;15207;42.182;24.308;2023-07-29T05:45:53;99074.44;;;23.49;49.41
27840;BME280;15207;42.182;24.308;2023-07-29T05:48:19;99077.78;;;23.64;47.19
27840;BME280;15207;42.182;24.308;2023-07-29T05:50:46;99061.59;;;23.70;47.62
27840;BME280;15207;42.182;24.308;2023-07-29T05:53:14;99063.84;;;23.93;47.86
27840;BME280;15207;42.182;24.308;2023-07-29T05:55:41;99065.72;;;23.99;47.05
27840;BME280;15207;42.182;24.308;2023-07-29T05:58:07;99061.50;;;24.03;47.34
27840;BME280;15207;42.182;24.308;2023-07-29T06:00:34;99055.00;;;23.91;46.39
27840;BME280;15207;42.182;24.308;2023-07-29T06:03:00;99053.91;;;24.06;46.44
27840;BME280;15207;42.182;24.308;2023-07-29T06:05:26;99053.69;;;24.21;46.79
27840;BME280;15207;42.182;24.308;2023-07-29T06:07:52;99053.34;;;24.42;46.17
27840;BME280;15207;42.182;24.308;2023-07-29T06:10:18;99059.63;;;24.50;45.51
27840;BME280;15207;42.182;24.308;2023-07-29T06:12:46;99056.34;;;24.34;45.74
27840;BME280;15207;42.182;24.308;2023-07-29T06:15:11;99058.31;;;24.07;45.79
27840;BME280;15207;42.182;24.308;2023-07-29T06:17:40;99055.13;;;24.23;45.98
27840;BME280;15207;42.182;24.308;2023-07-29T06:20:08;99048.44;;;24.19;44.25
27840;BME280;15207;42.182;24.308;2023-07-29T06:22:35;99053.88;;;24.26;44.03
27840;BME280;15207;42.182;24.308;2023-07-29T06:25:00;99048.19;;;24.27;44.35
27840;BME280;15207;42.182;24.308;2023-07-29T06:27:26;99051.63;;;24.55;43.89
27840;BME280;15207;42.182;24.308;2023-07-29T06:29:52;99049.84;;;25.00;42.81
27840;BME280;15207;42.182;24.308;2023-07-29T06:32:19;99050.56;;;25.39;42.01
27840;BME280;15207;42.182;24.308;2023-07-29T06:34:45;99053.38;;;25.58;41.60
27840;BME280;15207;42.182;24.308;2023-07-29T06:37:11;99044.31;;;25.76;40.41
27840;BME280;15207;42.182;24.308;2023-07-29T06:39:37;99049.75;;;26.01;39.54
27840;BME280;15207;42.182;24.308;2023-07-29T06:42:03;99045.53;;;26.18;38.57
27840;BME280;15207;42.182;24.308;2023-07-29T06:44:28;99044.22;;;26.20;38.51
27840;BME280;15207;42.182;24.308;2023-07-29T06:46:55;99036.19;;;26.07;39.31
27840;BME280;15207;42.182;24.308;2023-07-29T06:49:23;99035.88;;;25.96;38.46
27840;BME280;15207;42.182;24.308;2023-07-29T06:51:48;99037.94;;;25.82;38.50
27840;BME280;15207;42.182;24.308;2023-07-29T06:54:16;99033.25;;;26.20;38.58
27840;BME280;15207;42.182;24.308;2023-07-29T06:56:42;99035.06;;;26.45;38.00
27840;BME280;15207;42.182;24.308;2023-07-29T06:59:08;99031.63;;;26.50;38.61
27840;BME280;15207;42.182;24.308;2023-07-29T07:01:34;99025.59;;;26.72;37.68
27840;BME280;15207;42.182;24.308;2023-07-29T07:03:59;99024.31;;;26.86;37.29
27840;BME280;15207;42.182;24.308;2023-07-29T07:06:25;99021.53;;;27.05;36.49
27840;BME280;15207;42.182;24.308;2023-07-29T07:08:51;99011.00;;;27.14;36.56
27840;BME280;15207;42.182;24.308;2023-07-29T07:11:18;99006.50;;;27.31;36.56
27840;BME280;15207;42.182;24.308;2023-07-29T07:13:44;99007.31;;;27.20;36.10
27840;BME280;15207;42.182;24.308;2023-07-29T07:16:09;98998.47;;;27.18;36.91
27840;BME280;15207;42.182;24.308;2023-07-29T07:18:34;99004.06;;;26.99;36.28
27840;BME280;15207;42.182;24.308;2023-07-29T07:21:00;99005.53;;;27.14;37.03
27840;BME280;15207;42.182;24.308;2023-07-29T07:23:26;99005.53;;;27.38;36.44
27840;BME280;15207;42.182;24.308;2023-07-29T07:25:51;99004.91;;;27.36;34.96
27840;BME280;15207;42.182;24.308;2023-07-29T07:28:17;98999.53;;;27.05;35.24
27840;BME280;15207;42.182;24.308;2023-07-29T07:30:43;99003.31;;;26.80;35.78
27840;BME280;15207;42.182;24.308;2023-07-29T07:33:08;98998.28;;;26.89;36.16
27840;BME280;15207;42.182;24.308;2023-07-29T07:35:34;98990.94;;;27.37;35.56
27840;BME280;15207;42.182;24.308;2023-07-29T07:38:00;98991.84;;;27.79;35.80
27840;BME280;15207;42.182;24.308;2023-07-29T07:40:27;98989.56;;;27.88;34.87
27840;BME280;15207;42.182;24.308;2023-07-29T07:42:53;98990.94;;;27.61;33.93
27840;BME280;15207;42.182;24.308;2023-07-29T07:45:19;98978.75;;;27.69;34.08
27840;BME280;15207;42.182;24.308;2023-07-29T07:47:45;98984.97;;;28.05;34.40
27840;BME280;15207;42.182;24.308;2023-07-29T07:50:11;98984.09;;;28.17;34.80
27840;BME280;15207;42.182;24.308;2023-07-29T07:52:39;98974.13;;;28.28;33.26
27840;BME280;15207;42.182;24.308;2023-07-29T07:55:05;98972.47;;;28.27;34.19
27840;BME280;15207;42.182;24.308;2023-07-29T07:57:31;98972.28;;;28.62;33.56
27840;BME280;15207;42.182;24.308;2023-07-29T07:59:57;98973.44;;;28.67;32.38
27840;BME280;15207;42.182;24.308;2023-07-29T08:02:23;98977.00;;;28.50;32.94
27840;BME280;15207;42.182;24.308;2023-07-29T08:04:49;98970.50;;;28.56;32.63
27840;BME280;15207;42.182;24.308;2023-07-29T08:07:14;98968.00;;;28.37;32.64
27840;BME280;15207;42.182;24.308;2023-07-29T08:09:40;98963.66;;;28.59;32.20
27840;BME280;15207;42.182;24.308;2023-07-29T08:12:06;98955.75;;;28.62;32.56
27840;BME280;15207;42.182;24.308;2023-07-29T08:14:32;98948.75;;;28.55;32.51
27840;BME280;15207;42.182;24.308;2023-07-29T08:16:58;98948.44;;;28.22;33.21
27840;BME280;15207;42.182;24.308;2023-07-29T08:19:26;98944.53;;;28.06;32.58
27840;BME280;15207;42.182;24.308;2023-07-29T08:21:52;98954.16;;;28.32;32.81
27840;BME280;15207;42.182;24.308;2023-07-29T08:24:18;98946.09;;;28.60;33.30
27840;BME280;15207;42.182;24.308;2023-07-29T08:26:43;98944.19;;;28.95;32.01
27840;BME280;15207;42.182;24.308;2023-07-29T08:29:09;98955.00;;;29.19;31.70
27840;BME280;15207;42.182;24.308;2023-07-29T08:31:35;98949.94;;;28.93;31.74
27840;BME280;15207;42.182;24.308;2023-07-29T08:34:01;98950.84;;;28.99;31.65
27840;BME280;15207;42.182;24.308;2023-07-29T08:36:27;98949.59;;;29.07;31.47
27840;BME280;15207;42.182;24.308;2023-07-29T08:38:52;98946.38;;;28.93;32.21
27840;BME280;15207;42.182;24.308;2023-07-29T08:43:50;98947.31;;;29.60;30.93
27840;BME280;15207;42.182;24.308;2023-07-29T08:46:18;98943.09;;;29.52;31.42
27840;BME280;15207;42.182;24.308;2023-07-29T08:48:44;98942.53;;;29.50;30.83
27840;BME280;15207;42.182;24.308;2023-07-29T08:51:11;98941.72;;;30.00;30.15
27840;BME280;15207;42.182;24.308;2023-07-29T08:53:38;98936.34;;;29.65;30.40
27840;BME280;15207;42.182;24.308;2023-07-29T08:56:04;98930.72;;;29.77;30.44
27840;BME280;15207;42.182;24.308;2023-07-29T08:58:31;98923.41;;;29.66;29.99
27840;BME280;15207;42.182;24.308;2023-07-29T09:00:57;98912.09;;;29.45;30.32
27840;BME280;15207;42.182;24.308;2023-07-29T09:03:23;98914.72;;;29.79;30.76
27840;BME280;15207;42.182;24.308;2023-07-29T09:05:50;98911.25;;;29.89;29.24
27840;BME280;15207;42.182;24.308;2023-07-29T09:08:16;98903.88;;;29.95;29.81
27840;BME280;15207;42.182;24.308;2023-07-29T09:10:42;98900.56;;;30.20;29.68
27840;BME280;15207;42.182;24.308;2023-07-29T09:13:08;98894.06;;;30.09;29.35
27840;BME280;15207;42.182;24.308;2023-07-29T09:15:36;98900.56;;;30.20;29.82
27840;BME280;15207;42.182;24.308;2023-07-29T09:18:15;98884.53;;;30.17;29.47
27840;BME280;15207;42.182;24.308;2023-07-29T09:20:42;98884.19;;;30.74;28.89
27840;BME280;15207;42.182;24.308;2023-07-29T09:23:09;98883.69;;;30.82;28.67
27840;BME280;15207;42.182;24.308;2023-07-29T09:25:38;98890.47;;;30.69;28.79
27840;BME280;15207;42.182;24.308;2023-07-29T09:28:12;98887.31;;;30.50;28.43
27840;BME280;15207;42.182;24.308;2023-07-29T09:30:39;98884.03;;;30.26;28.51
27840;BME280;15207;42.182;24.308;2023-07-29T09:33:06;98873.88;;;30.64;28.02
27840;BME280;15207;42.182;24.308;2023-07-29T09:35:34;98870.78;;;31.42;27.49
27840;BME280;15207;42.182;24.308;2023-07-29T09:38:01;98864.25;;;31.84;27.98
27840;BME280;15207;42.182;24.308;2023-07-29T09:40:27;98872.00;;;31.77;26.59
27840;BME280;15207;42.182;24.308;2023-07-29T09:42:59;98868.06;;;31.04;26.78
27840;BME280;15207;42.182;24.308;2023-07-29T09:45:26;98869.69;;;30.94;27.79
27840;BME280;15207;42.182;24.308;2023-07-29T09:47:57;98861.50;;;31.20;27.94
27840;BME280;15207;42.182;24.308;2023-07-29T09:50:24;98861.09;;;31.39;27.36
27840;BME280;15207;42.182;24.308;2023-07-29T09:52:51;98866.97;;;31.05;28.18
27840;BME280;15207;42.182;24.308;2023-07-29T09:55:18;98868.72;;;31.26;28.36
27840;BME280;15207;42.182;24.308;2023-07-29T09:57:45;98872.94;;;31.34;28.10
27840;BME280;15207;42.182;24.308;2023-07-29T10:00:12;98867.41;;;31.39;27.75
27840;BME280;15207;42.182;24.308;2023-07-29T10:02:40;98852.81;;;31.44;27.97
27840;BME280;15207;42.182;24.308;2023-07-29T10:05:07;98854.34;;;31.24;27.91
27840;BME280;15207;42.182;24.308;2023-07-29T10:07:37;98848.72;;;31.04;28.27
27840;BME280;15207;42.182;24.308;2023-07-29T10:10:07;98858.84;;;31.36;28.12
27840;BME280;15207;42.182;24.308;2023-07-29T10:12:33;98850.28;;;31.37;27.59
27840;BME280;15207;42.182;24.308;2023-07-29T10:15:02;98856.38;;;31.39;27.31
27840;BME280;15207;42.182;24.308;2023-07-29T10:17:28;98850.22;;;31.27;27.60
27840;BME280;15207;42.182;24.308;2023-07-29T10:19:55;98850.66;;;31.67;27.25
27840;BME280;15207;42.182;24.308;2023-07-29T10:22:25;98842.34;;;31.67;27.19
27840;BME280;15207;42.182;24.308;2023-07-29T10:25:01;98840.69;;;31.61;27.53
27840;BME280;15207;42.182;24.308;2023-07-29T10:27:27;98843.19;;;31.73;27.26
27840;BME280;15207;42.182;24.308;2023-07-29T10:29:55;98833.59;;;32.06;27.40
27840;BME280;15207;42.182;24.308;2023-07-29T10:32:23;98830.53;;;32.34;27.12
27840;BME280;15207;42.182;24.308;2023-07-29T10:34:50;98819.75;;;32.01;26.62
27840;BME280;15207;42.182;24.308;2023-07-29T10:37:16;98822.50;;;31.91;26.88
27840;BME280;15207;42.182;24.308;2023-07-29T10:39:52;98826.31;;;31.69;27.06
27840;BME280;15207;42.182;24.308;2023-07-29T10:42:19;98822.47;;;31.80;27.17
27840;BME280;15207;42.182;24.308;2023-07-29T10:44:46;98815.03;;;31.91;26.98
27840;BME280;15207;42.182;24.308;2023-07-29T10:49:40;98815.00;;;31.76;26.91
27840;BME280;15207;42.182;24.308;2023-07-29T10:52:06;98809.50;;;31.97;26.93
27840;BME280;15207;42.182;24.308;2023-07-29T10:54:42;98805.31;;;31.84;26.54
27840;BME280;15207;42.182;24.308;2023-07-29T10:57:12;98800.09;;;32.18;27.08
27840;BME280;15207;42.182;24.308;2023-07-29T10:59:38;98787.31;;;32.64;26.38
27840;BME280;15207;42.182;24.308;2023-07-29T11:02:14;98788.94;;;32.86;25.92
27840;BME280;15207;42.182;24.308;2023-07-29T11:04:51;98783.19;;;32.51;26.17
27840;BME280;15207;42.182;24.308;2023-07-29T11:09:42;98787.09;;;32.24;26.44
27840;BME280;15207;42.182;24.308;2023-07-29T11:15:04;98775.72;;;32.41;27.00
27840;BME280;15207;42.182;24.308;2023-07-29T11:17:33;98778.47;;;32.62;25.80
27840;BME280;15207;42.182;24.308;2023-07-29T11:20:01;98768.81;;;32.08;26.50
27840;BME280;15207;42.182;24.308;2023-07-29T11:22:26;98766.59;;;32.30;26.59
27840;BME280;15207;42.182;24.308;2023-07-29T11:24:52;98766.59;;;32.15;25.93
27840;BME280;15207;42.182;24.308;2023-07-29T11:27:17;98761.03;;;32.56;26.07
27840;BME280;15207;42.182;24.308;2023-07-29T11:29:43;98768.72;;;32.80;26.13
27840;BME280;15207;42.182;24.308;2023-07-29T11:32:09;98761.53;;;32.74;25.76
27840;BME280;15207;42.182;24.308;2023-07-29T11:34:34;98757.44;;;32.56;26.48
27840;BME280;15207;42.182;24.308;2023-07-29T11:37:00;98756.88;;;32.59;26.13
27840;BME280;15207;42.182;24.308;2023-07-29T11:39:26;98754.91;;;32.70;26.22
27840;BME280;15207;42.182;24.308;2023-07-29T11:41:51;98759.28;;;32.87;25.62
27840;BME280;15207;42.182;24.308;2023-07-29T11:44:17;98756.28;;;32.67;25.69
27840;BME280;15207;42.182;24.308;2023-07-29T11:46:43;98743.31;;;32.47;25.61
27840;BME280;15207;42.182;24.308;2023-07-29T11:49:10;98748.28;;;32.55;26.04
27840;BME280;15207;42.182;24.308;2023-07-29T11:51:36;98735.84;;;32.37;25.69
27840;BME280;15207;42.182;24.308;2023-07-29T11:54:02;98737.78;;;32.26;25.61
27840;BME280;15207;42.182;24.308;2023-07-29T11:56:29;98740.59;;;32.05;25.69
27840;BME280;15207;42.182;24.308;2023-07-29T11:58:55;98730.63;;;32.04;25.39
27840;BME280;15207;42.182;24.308;2023-07-29T12:01:23;98723.13;;;32.10;25.29
27840;BME280;15207;42.182;24.308;2023-07-29T12:03:50;98726.13;;;32.55;26.06
27840;BME280;15207;42.182;24.308;2023-07-29T12:06:20;98721.66;;;32.70;25.21
27840;BME280;15207;42.182;24.308;2023-07-29T12:08:47;98717.16;;;32.84;25.36
27840;BME280;15207;42.182;24.308;2023-07-29T12:11:12;98721.59;;;32.85;25.17
27840;BME280;15207;42.182;24.308;2023-07-29T12:13:38;98718.25;;;32.99;25.20
27840;BME280;15207;42.182;24.308;2023-07-29T12:16:04;98720.50;;;32.81;25.46
27840;BME280;15207;42.182;24.308;2023-07-29T12:18:30;98711.34;;;32.81;25.28
27840;BME280;15207;42.182;24.308;2023-07-29T12:20:56;98709.97;;;32.78;24.84
27840;BME280;15207;42.182;24.308;2023-07-29T12:23:24;98706.13;;;32.74;24.85
27840;BME280;15207;42.182;24.308;2023-07-29T12:25:56;98703.06;;;32.76;25.36
27840;BME280;15207;42.182;24.308;2023-07-29T12:28:22;98695.06;;;32.74;25.63
27840;BME280;15207;42.182;24.308;2023-07-29T12:30:53;98693.84;;;32.91;25.64
27840;BME280;15207;42.182;24.308;2023-07-29T12:33:38;98694.13;;;32.89;24.78
27840;BME280;15207;42.182;24.308;2023-07-29T12:36:05;98700.00;;;32.77;25.09
27840;BME280;15207;42.182;24.308;2023-07-29T12:38:30;98700.50;;;32.95;24.11
27840;BME280;15207;42.182;24.308;2023-07-29T12:40:57;98699.97;;;32.82;25.49
27840;BME280;15207;42.182;24.308;2023-07-29T12:43:22;98688.03;;;32.92;25.09
27840;BME280;15207;42.182;24.308;2023-07-29T12:45:51;98687.75;;;32.94;24.42
27840;BME280;15207;42.182;24.308;2023-07-29T12:48:17;98694.66;;;32.96;24.13
27840;BME280;15207;42.182;24.308;2023-07-29T12:50:43;98688.63;;;32.84;23.85
27840;BME280;15207;42.182;24.308;2023-07-29T12:53:09;98683.31;;;32.98;23.84
27840;BME280;15207;42.182;24.308;2023-07-29T12:55:38;98679.88;;;33.17;23.73
27840;BME280;15207;42.182;24.308;2023-07-29T12:58:04;98685.44;;;33.11;23.94
27840;BME280;15207;42.182;24.308;2023-07-29T13:00:30;98681.66;;;32.92;23.38
27840;BME280;15207;42.182;24.308;2023-07-29T13:02:56;98682.38;;;33.18;23.92
27840;BME280;15207;42.182;24.308;2023-07-29T13:05:22;98687.78;;;33.39;23.46
27840;BME280;15207;42.182;24.308;2023-07-29T13:07:48;98683.03;;;33.45;22.85